sensor_id;sensor_type;location;lat;lon;timestamp;temperature;humidity
29255;DHT22;16277;48.890;2.306;2023-08-30T00:00:29;19.50;99.90
29255;DHT22;16277;48.890;2.306;2023-08-30T00:15:34;19.70;99.90
29255;DHT22;16277;48.890;2.306;2023-08-30T00:30:38;19.70;99.90
29255;DHT22;16277;48.890;2.306;2023-08-30T00:45:43;19.40;99.90
29255;DHT22;16277;48.890;2.306;2023-08-30T01:00:48;19.80;99.90
29255;DHT22;16277;48.890;2.306;2023-08-30T01:16:12;20.00;99.90
29255;DHT22;16277;48.890;2.306;2023-08-30T01:31:17;19.90;99.90
29255;DHT22;16277;48.890;2.306;2023-08-30T01:46:24;19.60;99.90
29255;DHT22;16277;48.890;2.306;2023-08-30T02:01:29;19.70;99.90
29255;DHT22;16277;48.890;2.306;2023-08-30T02:16:37;19.40;99.90
29255;DHT22;16277;48.890;2.306;2023-08-30T02:32:00;19.30;99.90
29255;DHT22;16277;48.890;2.306;2023-08-30T02:47:04;19.30;99.90
29255;DHT22;16277;48.890;2.306;2023-08-30T03:02:09;19.30;99.90
29255;DHT22;16277;48.890;2.306;2023-08-30T03:17:32;19.00;99.90
29255;DHT22;16277;48.890;2.306;2023-08-30T03:32:36;19.00;99.90
29255;DHT22;16277;48.890;2.306;2023-08-30T03:47:41;19.00;99.90
29255;DHT22;16277;48.890;2.306;2023-08-30T04:02:47;19.00;99.90
29255;DHT22;16277;48.890;2.306;2023-08-30T04:17:52;19.00;99.90
29255;DHT22;16277;48.890;2.306;2023-08-30T04:32:58;19.00;99.90
29255;DHT22;16277;48.890;2.306;2023-08-30T04:48:05;19.20;99.90
29255;DHT22;16277;48.890;2.306;2023-08-30T05:03:11;19.30;99.90
29255;DHT22;16277;48.890;2.306;2023-08-30T05:18:16;19.30;99.90
29255;DHT22;16277;48.890;2.306;2023-08-30T05:33:23;19.10;99.90
29255;DHT22;16277;48.890;2.306;2023-08-30T05:48:59;19.00;99.90
29255;DHT22;16277;48.890;2.306;2023-08-30T06:04:05;19.00;99.90
29255;DHT22;16277;48.890;2.306;2023-08-30T06:19:10;18.80;99.90
29255;DHT22;16277;48.890;2.306;2023-08-30T06:34:15;18.70;99.90
29255;DHT22;16277;48.890;2.306;2023-08-30T06:49:19;18.90;99.90
29255;DHT22;16277;48.890;2.306;2023-08-30T07:04:24;18.90;99.90
29255;DHT22;16277;48.890;2.306;2023-08-30T07:19:28;18.70;99.90
29255;DHT22;16277;48.890;2.306;2023-08-30T07:34:33;18.40;99.90
29255;DHT22;16277;48.890;2.306;2023-08-30T07:49:37;18.80;99.90
29255;DHT22;16277;48.890;2.306;2023-08-30T08:04:42;18.90;99.90
29255;DHT22;16277;48.890;2.306;2023-08-30T08:19:47;18.80;99.90
29255;DHT22;16277;48.890;2.306;2023-08-30T08:34:51;19.20;99.90
29255;DHT22;16277;48.890;2.306;2023-08-30T08:59:22;19.10;99.90
29255;DHT22;16277;48.890;2.306;2023-08-30T09:14:28;18.80;99.90
29255;DHT22;16277;48.890;2.306;2023-08-30T09:29:32;19.60;99.90
29255;DHT22;16277;48.890;2.306;2023-08-30T09:44:37;19.70;99.90
29255;DHT22;16277;48.890;2.306;2023-08-30T09:59:42;19.60;99.90
29255;DHT22;16277;48.890;2.306;2023-08-30T10:14:47;19.90;99.90
29255;DHT22;16277;48.890;2.306;2023-08-30T10:29:51;19.80;99.90
29255;DHT22;16277;48.890;2.306;2023-08-30T10:45:00;19.90;99.90
29255;DHT22;16277;48.890;2.306;2023-08-30T11:00:20;20.20;99.60
29255;DHT22;16277;48.890;2.306;2023-08-30T11:15:26;20.50;99.40
29255;DHT22;16277;48.890;2.306;2023-08-30T11:30:31;20.60;98.90
29255;DHT22;16277;48.890;2.306;2023-08-30T11:45:35;20.60;98.40
29255;DHT22;16277;48.890;2.306;2023-08-30T12:00:40;20.50;98.00
29255;DHT22;16277;48.890;2.306;2023-08-30T12:15:45;21.10;96.20
29255;DHT22;16277;48.890;2.306;2023-08-30T12:30:50;21.50;96.90
29255;DHT22;16277;48.890;2.306;2023-08-30T12:45:54;21.40;96.90
29255;DHT22;16277;48.890;2.306;2023-08-30T13:01:00;21.30;95.70
29255;DHT22;16277;48.890;2.306;2023-08-30T13:16:05;21.70;97.00
29255;DHT22;16277;48.890;2.306;2023-08-30T13:31:10;21.50;95.40
29255;DHT22;16277;48.890;2.306;2023-08-30T13:46:15;21.70;93.30
29255;DHT22;16277;48.890;2.306;2023-08-30T14:01:20;21.30;94.70
29255;DHT22;16277;48.890;2.306;2023-08-30T14:16:24;23.50;89.70
29255;DHT22;16277;48.890;2.306;2023-08-30T14:31:29;23.70;86.90
29255;DHT22;16277;48.890;2.306;2023-08-30T14:46:34;24.80;85.60
29255;DHT22;16277;48.890;2.306;2023-08-30T15:01:40;23.00;90.10
29255;DHT22;16277;48.890;2.306;2023-08-30T15:16:44;21.80;92.80
29255;DHT22;16277;48.890;2.306;2023-08-30T15:31:49;21.70;92.20
29255;DHT22;16277;48.890;2.306;2023-08-30T15:46:56;23.10;90.10
29255;DHT22;16277;48.890;2.306;2023-08-30T16:02:01;23.30;85.80
29255;DHT22;16277;48.890;2.306;2023-08-30T16:17:06;22.50;87.00
29255;DHT22;16277;48.890;2.306;2023-08-30T16:32:10;21.80;89.30
29255;DHT22;16277;48.890;2.306;2023-08-30T16:47:15;21.80;90.00
29255;DHT22;16277;48.890;2.306;2023-08-30T17:02:20;21.90;90.10
29255;DHT22;16277;48.890;2.306;2023-08-30T17:17:27;21.40;91.00
29255;DHT22;16277;48.890;2.306;2023-08-30T17:32:32;21.30;92.20
29255;DHT22;16277;48.890;2.306;2023-08-30T17:47:37;21.70;92.10
29255;DHT22;16277;48.890;2.306;2023-08-30T18:02:44;21.40;92.60
29255;DHT22;16277;48.890;2.306;2023-08-30T18:17:49;21.10;93.20
29255;DHT22;16277;48.890;2.306;2023-08-30T18:32:54;21.10;94.20
29255;DHT22;16277;48.890;2.306;2023-08-30T18:48:00;21.10;93.80
29255;DHT22;16277;48.890;2.306;2023-08-30T19:03:24;20.90;94.50
29255;DHT22;16277;48.890;2.306;2023-08-30T19:18:28;20.60;95.30
29255;DHT22;16277;48.890;2.306;2023-08-30T19:33:34;20.20;96.30
